Time;durP1;ratioP1;P1;durP2;ratioP2;P2;SDS_P1;SDS_P2;PMS_P1;PMS_P2;Temp;Humidity;BMP_temperature;BMP_pressure;BME280_temperature;BME280_humidity;BME280_pressure;Samples;Min_cycle;Max_cycle;Signal;HPM_P1;HPM_P2
2022/01/23 00:00:16;;;;;;;2.10;1.77;;;3.90;99.90;;;;;;5083143;28;20256;-57
2022/01/23 00:03:06;;;;;;;0.87;0.70;;;3.90;99.90;;;;;;5081331;28;20212;-59
2022/01/23 00:05:52;;;;;;;0.80;0.80;;;3.90;99.90;;;;;;5084198;28;20269;-53
2022/01/23 00:08:36;;;;;;;1.80;1.17;;;3.90;99.90;;;;;;5086159;28;20193;-60
2022/01/23 00:11:25;;;;;;;0.87;0.87;;;3.90;99.90;;;;;;5086476;28;20192;-52
2022/01/23 00:17:20;;;;;;;2.83;1.90;;;4.00;99.90;;;;;;5088502;28;20258;-50
2022/01/23 00:20:09;;;;;;;1.27;0.80;;;3.90;99.90;;;;;;5084902;28;20235;-55
2022/01/23 00:22:58;;;;;;;1.40;1.33;;;4.00;99.90;;;;;;5087954;28;20267;-59
2022/01/23 00:31:49;;;;;;;1.27;1.20;;;4.00;99.90;;;;;;5088241;28;20271;-52
2022/01/23 00:34:33;;;;;;;1.60;1.50;;;4.00;99.90;;;;;;5086327;28;20220;-56
2022/01/23 00:37:19;;;;;;;1.00;0.90;;;4.00;99.90;;;;;;5085299;28;20201;-54
2022/01/23 00:39:45;;;;;;;0.87;0.87;;;4.00;99.90;;;;;;5069280;28;20218;-60
2022/01/23 00:42:10;;;;;;;1.57;1.47;;;4.00;99.90;;;;;;5067021;28;20213;-55
2022/01/23 00:44:37;;;;;;;1.07;1.07;;;4.00;99.90;;;;;;5087057;28;20200;-54
2022/01/23 00:47:10;;;;;;;1.43;1.33;;;4.00;99.90;;;;;;5067544;28;20209;-61
2022/01/23 00:49:36;;;;;;;1.57;1.17;;;4.00;99.90;;;;;;5068339;28;20181;-57
2022/01/23 00:52:02;;;;;;;1.87;1.77;;;3.90;99.90;;;;;;5068624;28;20186;-49
2022/01/23 00:54:27;;;;;;;2.90;1.37;;;3.90;99.90;;;;;;5067295;28;20281;-57
2022/01/23 00:56:54;;;;;;;1.83;1.27;;;3.90;99.90;;;;;;5069155;28;20192;-46
2022/01/23 00:59:19;;;;;;;1.43;1.33;;;3.90;99.90;;;;;;5066598;28;20663;-54
2022/01/23 01:01:45;;;;;;;2.27;1.87;;;3.90;99.90;;;;;;5069379;28;20246;-52
2022/01/23 01:04:11;;;;;;;1.97;1.87;;;3.90;99.90;;;;;;5067341;28;20214;-59
2022/01/23 01:06:37;;;;;;;1.90;1.80;;;3.90;99.90;;;;;;5069520;28;20194;-53
2022/01/23 01:09:06;;;;;;;3.03;2.73;;;3.90;99.90;;;;;;5067859;28;20185;-53
2022/01/23 01:12:19;;;;;;;3.13;2.07;;;3.80;99.90;;;;;;5067944;28;20193;-52
2022/01/23 01:14:32;;;;;;;2.07;1.93;;;3.80;99.90;;;;;;5077891;28;20201;-57
2022/01/23 01:35:31;;;;;;;3.43;2.63;;;3.80;99.90;;;;;;5085247;28;20197;-49
2022/01/23 01:37:57;;;;;;;2.87;2.57;;;3.90;99.90;;;;;;5066580;28;20204;-52
2022/01/23 01:40:24;;;;;;;3.67;2.70;;;3.80;99.90;;;;;;5068532;28;20237;-59
2022/01/23 01:42:49;;;;;;;3.27;2.03;;;3.80;99.90;;;;;;5065512;28;20217;-57
2022/01/23 01:45:24;;;;;;;5.00;3.63;;;3.90;99.90;;;;;;5068833;28;20178;-47
2022/01/23 01:47:52;;;;;;;2.47;2.27;;;3.80;99.90;;;;;;5067123;28;20185;-59
2022/01/23 01:50:18;;;;;;;2.67;2.47;;;3.80;99.90;;;;;;5067157;28;20186;-58
2022/01/23 01:52:45;;;;;;;2.20;2.10;;;3.80;99.90;;;;;;5067869;28;20547;-50
2022/01/23 01:55:16;;;;;;;4.80;2.77;;;3.80;99.90;;;;;;5065846;28;20194;-57
2022/01/23 01:57:51;;;;;;;2.33;1.77;;;3.80;99.90;;;;;;5068108;28;20189;-56
2022/01/23 02:08:30;;;;;;;2.80;2.57;;;3.70;99.90;;;;;;5082728;28;20247;-55
2022/01/23 02:11:16;;;;;;;2.00;1.77;;;3.70;99.90;;;;;;5068285;28;20182;-59
2022/01/23 02:13:55;;;;;;;2.10;1.90;;;3.70;99.90;;;;;;5066058;28;20186;-51
2022/01/23 02:56:46;;;;;;;1.43;1.33;;;3.50;99.90;;;;;;5081156;28;20189;-53
2022/01/23 02:59:35;;;;;;;2.13;1.87;;;3.50;99.90;;;;;;5066485;28;20189;-50
2022/01/23 03:04:52;;;;;;;1.77;1.67;;;3.50;99.90;;;;;;5081388;28;20197;-55
2022/01/23 03:15:08;;;;;;;3.00;1.63;;;3.50;99.90;;;;;;5083182;28;20190;-48
2022/01/23 03:28:26;;;;;;;2.40;1.83;;;3.50;99.90;;;;;;5083259;28;20198;-58
2022/01/23 03:31:20;;;;;;;3.70;1.90;;;3.50;99.90;;;;;;5064479;28;20189;-54
2022/01/23 03:33:46;;;;;;;2.37;1.50;;;3.50;99.90;;;;;;5067389;28;20203;-48
2022/01/23 03:36:14;;;;;;;2.57;2.07;;;3.50;99.90;;;;;;5065790;28;20186;-61
2022/01/23 03:38:42;;;;;;;3.13;1.83;;;3.50;99.90;;;;;;5065493;28;20266;-51
2022/01/23 03:41:10;;;;;;;3.87;2.97;;;3.50;99.90;;;;;;5066403;28;20280;-57
2022/01/23 03:43:38;;;;;;;2.80;2.57;;;3.50;99.90;;;;;;5067519;28;20213;-59
2022/01/23 03:46:34;;;;;;;4.90;2.97;;;3.50;99.90;;;;;;5070846;28;20331;-54
2022/01/23 03:51:48;;;;;;;4.10;2.87;;;3.50;99.90;;;;;;5085147;28;20245;-56
2022/01/23 03:54:14;;;;;;;2.80;2.40;;;3.50;99.90;;;;;;5070358;28;20178;-55
2022/01/23 03:56:41;;;;;;;2.23;2.00;;;3.40;99.90;;;;;;5068314;28;20185;-58
2022/01/23 03:59:07;;;;;;;3.70;1.93;;;3.50;99.90;;;;;;5071035;28;20242;-52
2022/01/23 04:01:33;;;;;;;2.90;2.70;;;3.50;99.90;;;;;;5067868;28;20182;-56
2022/01/23 04:04:02;;;;;;;2.33;2.00;;;3.50;99.90;;;;;;5070623;28;20734;-56
2022/01/23 04:06:30;;;;;;;5.20;3.30;;;3.50;99.90;;;;;;5069019;28;20211;-56
2022/01/23 04:08:57;;;;;;;3.53;2.67;;;3.50;99.90;;;;;;5069104;28;20186;-48
2022/01/23 04:11:23;;;;;;;3.87;3.07;;;3.50;99.90;;;;;;5069639;28;20193;-55
2022/01/23 04:13:57;;;;;;;3.37;2.37;;;3.50;99.90;;;;;;5068272;28;20190;-56
2022/01/23 04:19:18;;;;;;;6.17;3.13;;;3.40;99.90;;;;;;5084907;28;20193;-50
2022/01/23 04:45:44;;;;;;;4.23;2.53;;;3.40;99.90;;;;;;5086705;28;20189;-57
2022/01/23 05:04:21;;;;;;;3.57;2.23;;;3.20;99.90;;;;;;5086529;28;20170;-55
2022/01/23 05:07:00;;;;;;;4.77;3.00;;;3.20;99.90;;;;;;5067459;28;20174;-59
2022/01/23 05:09:27;;;;;;;2.70;1.73;;;3.20;99.90;;;;;;5068207;28;20221;-53
2022/01/23 05:11:59;;;;;;;4.50;2.30;;;3.20;99.90;;;;;;5068623;28;20174;-50
2022/01/23 05:14:38;;;;;;;5.93;3.50;;;3.20;99.90;;;;;;5066550;28;20194;-60
2022/01/23 05:17:05;;;;;;;2.33;2.23;;;3.20;99.90;;;;;;5069226;28;20186;-57
2022/01/23 05:19:33;;;;;;;2.40;1.57;;;3.10;99.90;;;;;;5066644;28;20221;-60
2022/01/23 05:24:54;;;;;;;3.77;2.47;;;3.10;99.90;;;;;;5085093;28;20235;-61
2022/01/23 05:27:27;;;;;;;3.77;2.70;;;3.20;99.90;;;;;;5066357;28;20213;-59
2022/01/23 05:29:54;;;;;;;1.60;1.50;;;3.10;99.90;;;;;;5068414;28;20186;-50
2022/01/23 05:32:21;;;;;;;2.90;1.40;;;3.10;99.90;;;;;;5066337;28;20186;-53
2022/01/23 05:34:48;;;;;;;4.37;1.67;;;3.10;99.90;;;;;;5068894;28;20281;-48
2022/01/23 05:37:18;;;;;;;3.77;2.00;;;3.10;99.90;;;;;;5067347;28;20188;-60
2022/01/23 05:39:45;;;;;;;3.57;2.23;;;3.20;99.90;;;;;;5067164;28;20594;-59
2022/01/23 05:42:11;;;;;;;4.27;2.27;;;3.10;99.90;;;;;;5067916;28;20308;-56
2022/01/23 05:44:38;;;;;;;1.83;1.70;;;3.10;99.90;;;;;;5066166;28;20272;-51
2022/01/23 05:47:05;;;;;;;3.77;2.53;;;3.10;99.90;;;;;;5067972;28;20188;-57
2022/01/23 05:49:31;;;;;;;3.47;1.77;;;3.10;99.90;;;;;;5066729;28;20649;-58
2022/01/23 05:51:58;;;;;;;3.40;1.97;;;3.10;99.90;;;;;;5069007;28;20196;-55
2022/01/23 05:54:25;;;;;;;2.60;1.93;;;3.00;99.90;;;;;;5066053;28;20198;-60
2022/01/23 05:56:51;;;;;;;1.70;1.60;;;3.00;99.90;;;;;;5067829;28;20182;-58
2022/01/23 05:59:17;;;;;;;2.57;2.10;;;3.00;99.90;;;;;;5067334;28;20181;-55
2022/01/23 06:01:46;;;;;;;5.47;2.37;;;3.00;99.90;;;;;;5066019;28;20216;-54
2022/01/23 06:04:13;;;;;;;5.30;2.30;;;3.00;99.90;;;;;;5067271;28;20186;-50
2022/01/23 06:06:38;;;;;;;3.30;2.70;;;3.00;99.90;;;;;;5065107;28;20188;-60
2022/01/23 06:09:05;;;;;;;2.10;2.00;;;3.00;99.90;;;;;;5068376;28;20186;-58
2022/01/23 06:11:30;;;;;;;2.07;1.90;;;3.00;99.90;;;;;;5065274;28;20203;-57
2022/01/23 06:13:56;;;;;;;2.67;1.87;;;3.00;99.90;;;;;;5067653;28;20284;-54
2022/01/23 06:16:22;;;;;;;2.13;1.90;;;3.00;99.90;;;;;;5065785;28;20239;-60
2022/01/23 06:18:48;;;;;;;1.80;1.70;;;3.00;99.90;;;;;;5066148;28;20189;-57
2022/01/23 06:21:18;;;;;;;1.80;1.70;;;3.00;99.90;;;;;;5067455;28;20193;-50
2022/01/23 06:23:48;;;;;;;4.33;2.17;;;3.10;99.90;;;;;;5065127;28;20256;-55
2022/01/23 06:26:17;;;;;;;4.47;2.27;;;3.10;99.90;;;;;;5067759;28;20193;-61
2022/01/23 06:28:53;;;;;;;1.97;1.80;;;3.10;99.90;;;;;;5064722;28;20198;-57
2022/01/23 06:31:19;;;;;;;2.80;2.27;;;3.10;99.90;;;;;;5067689;28;20552;-56
2022/01/23 06:33:45;;;;;;;1.53;1.43;;;3.10;99.90;;;;;;5066441;28;20185;-60
2022/01/23 06:36:10;;;;;;;3.60;2.70;;;3.20;99.90;;;;;;5066257;28;20181;-57
2022/01/23 06:38:36;;;;;;;14.60;6.00;;;3.10;99.90;;;;;;5067017;28;20221;-58
2022/01/23 06:41:02;;;;;;;6.40;3.43;;;3.20;99.90;;;;;;5065034;28;20243;-52
2022/01/23 06:43:29;;;;;;;3.20;2.43;;;3.30;99.90;;;;;;5084146;28;20233;-57
2022/01/23 06:45:55;;;;;;;2.00;1.53;;;3.20;99.90;;;;;;5065461;28;20205;-60
2022/01/23 06:48:21;;;;;;;3.23;2.60;;;3.30;99.90;;;;;;5085227;28;20178;-54
2022/01/23 06:50:47;;;;;;;4.00;2.97;;;3.30;99.90;;;;;;5065237;28;20196;-58
2022/01/23 06:53:13;;;;;;;3.50;3.20;;;3.40;99.90;;;;;;5066970;28;20189;-52
2022/01/23 06:55:38;;;;;;;2.80;2.60;;;3.30;99.90;;;;;;5066780;28;20223;-61
2022/01/23 06:58:04;;;;;;;2.53;2.13;;;3.30;99.90;;;;;;5065462;28;20185;-59
2022/01/23 07:00:32;;;;;;;2.77;2.27;;;3.30;99.90;;;;;;5066703;28;20189;-49
2022/01/23 07:02:59;;;;;;;6.20;2.67;;;3.30;99.90;;;;;;5064675;28;20244;-57
2022/01/23 07:05:26;;;;;;;24.70;10.23;;;3.30;99.90;;;;;;5067306;28;20186;-57
2022/01/23 07:07:52;;;;;;;11.00;6.07;;;3.40;99.90;;;;;;5064656;28;20194;-57
2022/01/23 07:10:20;;;;;;;3.73;2.57;;;3.40;99.90;;;;;;5067111;28;20190;-55
2022/01/23 07:12:45;;;;;;;2.53;2.33;;;3.70;99.90;;;;;;5065495;28;20197;-61
2022/01/23 07:15:11;;;;;;;1.70;1.60;;;3.60;99.90;;;;;;5065411;28;20258;-51
2022/01/23 07:17:39;;;;;;;2.13;1.93;;;3.70;99.90;;;;;;5065718;28;20242;-50
2022/01/23 07:20:06;;;;;;;2.37;2.17;;;3.80;99.90;;;;;;5065335;28;20189;-60
2022/01/23 07:22:31;;;;;;;3.37;2.47;;;3.80;99.90;;;;;;5066366;28;20214;-53
2022/01/23 07:25:01;;;;;;;3.10;2.57;;;3.90;99.90;;;;;;5064499;28;20192;-62
2022/01/23 07:27:34;;;;;;;2.30;2.10;;;4.00;99.90;;;;;;5067182;28;20189;-55
2022/01/23 07:29:59;;;;;;;2.50;1.50;;;4.00;99.90;;;;;;5065666;28;20174;-60
2022/01/23 07:32:25;;;;;;;1.80;1.57;;;4.10;99.90;;;;;;5065518;28;20178;-51
2022/01/23 07:34:52;;;;;;;2.90;2.13;;;4.00;99.90;;;;;;5066150;28;20173;-58
2022/01/23 07:37:18;;;;;;;3.20;2.73;;;4.20;99.90;;;;;;5064487;28;20200;-57
2022/01/23 07:39:43;;;;;;;5.00;2.20;;;4.20;99.90;;;;;;5067490;28;20221;-51
2022/01/23 07:42:09;;;;;;;1.83;1.77;;;3.90;99.90;;;;;;5064826;28;20301;-59
2022/01/23 07:44:35;;;;;;;9.17;4.80;;;4.00;99.90;;;;;;5067579;28;20186;-52
2022/01/23 07:47:01;;;;;;;3.73;2.27;;;4.00;99.90;;;;;;5064806;28;20181;-55
2022/01/23 07:49:26;;;;;;;4.00;2.23;;;3.80;99.90;;;;;;5066513;28;20178;-58
2022/01/23 07:51:52;;;;;;;2.67;2.13;;;3.80;99.90;;;;;;5065620;28;20186;-59
2022/01/23 07:54:18;;;;;;;3.47;2.10;;;3.80;99.90;;;;;;5064449;28;20234;-60
2022/01/23 07:56:45;;;;;;;2.20;2.00;;;3.70;99.90;;;;;;5066036;28;20192;-60
2022/01/23 07:59:11;;;;;;;1.73;1.63;;;3.80;99.90;;;;;;5064179;28;20204;-59
2022/01/23 08:01:40;;;;;;;4.90;2.40;;;3.90;99.90;;;;;;5067318;28;20181;-57
2022/01/23 08:04:09;;;;;;;2.50;2.30;;;3.90;99.90;;;;;;5064571;28;20209;-61
2022/01/23 08:06:41;;;;;;;2.53;2.10;;;3.90;99.90;;;;;;5066778;28;20194;-57
2022/01/23 08:09:08;;;;;;;2.57;1.37;;;3.90;99.90;;;;;;5065618;28;20188;-60
2022/01/23 08:11:35;;;;;;;3.17;2.07;;;3.90;99.90;;;;;;5064603;28;20189;-58
2022/01/23 08:14:00;;;;;;;4.90;4.23;;;4.00;99.90;;;;;;5065875;28;20182;-48
2022/01/23 08:16:26;;;;;;;4.13;2.53;;;4.00;99.90;;;;;;5064116;28;20216;-58
2022/01/23 08:18:52;;;;;;;1.90;1.80;;;4.10;99.90;;;;;;5066678;28;20178;-53
2022/01/23 08:21:18;;;;;;;3.70;2.27;;;4.10;99.90;;;;;;5063560;28;20189;-60
2022/01/23 08:23:43;;;;;;;4.73;2.40;;;4.20;99.90;;;;;;5066346;28;20214;-59
2022/01/23 08:26:10;;;;;;;5.33;2.53;;;4.10;99.90;;;;;;5064270;28;20190;-53
2022/01/23 08:28:36;;;;;;;5.57;3.37;;;4.20;99.90;;;;;;5067076;28;20277;-54
2022/01/23 08:31:02;;;;;;;4.53;3.10;;;4.30;99.90;;;;;;5069497;28;20197;-49
2022/01/23 08:33:27;;;;;;;3.63;2.23;;;4.40;99.90;;;;;;5067648;28;20186;-59
2022/01/23 08:35:56;;;;;;;2.33;1.90;;;4.40;99.90;;;;;;5069552;28;20190;-58
2022/01/23 08:38:25;;;;;;;4.70;3.60;;;4.40;99.90;;;;;;5067637;28;20193;-52
2022/01/23 08:43:36;;;;;;;3.63;2.27;;;4.40;99.90;;;;;;5085263;28;20217;-60
2022/01/23 08:46:01;;;;;;;5.70;2.47;;;4.30;99.90;;;;;;5068432;28;20193;-48
2022/01/23 08:48:27;;;;;;;5.37;2.27;;;4.30;99.90;;;;;;5069230;28;20186;-58
2022/01/23 08:50:53;;;;;;;3.30;2.40;;;4.30;99.90;;;;;;5067205;28;20182;-52
2022/01/23 08:53:19;;;;;;;2.17;1.53;;;4.20;99.90;;;;;;5069098;28;20217;-57
2022/01/23 08:55:44;;;;;;;3.43;2.70;;;4.20;99.90;;;;;;5066430;28;20289;-56
2022/01/23 08:58:11;;;;;;;4.23;2.43;;;4.20;99.90;;;;;;5069621;28;20190;-57
2022/01/23 09:00:37;;;;;;;39.43;21.97;;;4.30;99.90;;;;;;5066860;28;20616;-58
2022/01/23 09:03:03;;;;;;;7.20;3.80;;;4.50;99.90;;;;;;5068528;28;20213;-47
2022/01/23 09:05:28;;;;;;;2.37;1.67;;;4.60;99.90;;;;;;5085182;28;20193;-59
2022/01/23 09:07:55;;;;;;;3.00;2.27;;;4.50;99.90;;;;;;5067601;28;20177;-53
2022/01/23 09:10:26;;;;;;;4.53;2.50;;;4.40;99.90;;;;;;5069072;28;20276;-48
2022/01/23 09:15:22;;;;;;;3.33;2.50;;;4.40;99.90;;;;;;5086307;28;20192;-57
2022/01/23 09:17:48;;;;;;;3.50;2.40;;;4.30;99.90;;;;;;5066571;28;20185;-59
2022/01/23 09:20:15;;;;;;;4.00;2.50;;;4.30;99.90;;;;;;5068688;28;20215;-59
2022/01/23 09:22:40;;;;;;;2.33;1.73;;;4.30;99.90;;;;;;5067218;28;20221;-56
2022/01/23 09:25:07;;;;;;;2.70;2.43;;;4.50;99.90;;;;;;5067527;28;20596;-56
2022/01/23 09:27:33;;;;;;;2.37;1.83;;;4.50;99.90;;;;;;5068731;28;20281;-52
2022/01/23 09:30:06;;;;;;;2.50;1.17;;;4.50;99.90;;;;;;5066407;28;21282;-48
2022/01/23 09:32:32;;;;;;;3.77;2.07;;;4.40;99.90;;;;;;5068919;28;20228;-55
2022/01/23 09:34:57;;;;;;;1.80;1.53;;;4.40;99.90;;;;;;5066337;28;20225;-60
2022/01/23 09:37:24;;;;;;;6.17;4.13;;;4.50;99.90;;;;;;5068851;28;20206;-55
2022/01/23 09:39:50;;;;;;;3.10;2.40;;;4.50;99.90;;;;;;5066757;28;20241;-58
2022/01/23 09:42:23;;;;;;;2.53;1.90;;;4.60;99.90;;;;;;5066977;28;20225;-54
2022/01/23 09:45:03;;;;;;;1.80;1.70;;;4.80;99.90;;;;;;5068183;28;20194;-50
2022/01/23 09:47:31;;;;;;;3.47;1.63;;;5.00;99.90;;;;;;5065909;28;20190;-58
2022/01/23 09:50:00;;;;;;;2.77;1.63;;;5.00;99.90;;;;;;5068269;28;20261;-56
2022/01/23 09:52:32;;;;;;;1.33;1.33;;;5.00;99.90;;;;;;5066129;28;20185;-60
2022/01/23 09:55:06;;;;;;;2.33;1.70;;;5.00;99.90;;;;;;5067988;28;20194;-59
2022/01/23 09:57:33;;;;;;;2.33;1.47;;;5.00;99.90;;;;;;5067470;28;20190;-55
2022/01/23 10:00:00;;;;;;;2.03;1.43;;;4.90;99.90;;;;;;5066089;28;20186;-51
2022/01/23 10:02:28;;;;;;;2.30;1.87;;;4.90;99.90;;;;;;5067382;28;20222;-51
2022/01/23 10:04:55;;;;;;;3.43;2.50;;;5.10;99.90;;;;;;5066108;28;20177;-59
2022/01/23 10:07:21;;;;;;;4.63;2.90;;;5.10;99.90;;;;;;5068455;28;20182;-60
2022/01/23 10:09:53;;;;;;;3.90;2.07;;;5.20;99.90;;;;;;5066200;28;20194;-61
2022/01/23 10:12:20;;;;;;;2.73;2.30;;;5.20;99.90;;;;;;5067822;28;20185;-57
2022/01/23 10:14:47;;;;;;;2.83;1.43;;;5.20;99.90;;;;;;5066855;28;20198;-59
2022/01/23 10:17:12;;;;;;;1.70;1.37;;;5.20;99.90;;;;;;5065537;28;20182;-57
2022/01/23 10:19:39;;;;;;;2.00;1.70;;;5.50;99.90;;;;;;5067444;28;20275;-50
2022/01/23 10:22:06;;;;;;;1.50;1.33;;;5.40;99.90;;;;;;5065642;28;20674;-57
2022/01/23 10:24:32;;;;;;;1.33;1.27;;;5.30;99.90;;;;;;5068070;28;20274;-57
2022/01/23 10:27:00;;;;;;;1.63;1.13;;;5.20;99.90;;;;;;5065172;28;20177;-54
2022/01/23 10:29:30;;;;;;;1.83;1.30;;;5.40;99.90;;;;;;5067946;28;20189;-58
2022/01/23 10:32:12;;;;;;;1.23;1.13;;;5.40;99.90;;;;;;5066533;28;20189;-63
2022/01/23 10:34:40;;;;;;;1.47;0.77;;;5.30;99.90;;;;;;5066069;28;20246;-55
2022/01/23 10:37:07;;;;;;;1.33;1.17;;;5.30;99.90;;;;;;5067770;28;20276;-61
2022/01/23 10:39:48;;;;;;;1.63;1.50;;;5.30;99.90;;;;;;5066355;28;20226;-55
2022/01/23 10:42:52;;;;;;;1.00;0.80;;;5.10;99.90;;;;;;5067984;28;20315;-56
2022/01/23 10:48:25;;;;;;;1.13;1.03;;;5.50;99.90;;;;;;5082322;28;20198;-49
2022/01/23 10:50:52;;;;;;;5.50;3.37;;;5.40;99.90;;;;;;5068294;28;20280;-58
2022/01/23 10:53:18;;;;;;;2.23;1.90;;;5.50;99.90;;;;;;5065681;28;20182;-57
2022/01/23 10:55:45;;;;;;;1.10;1.00;;;5.70;99.90;;;;;;5066563;28;20186;-49
2022/01/23 10:58:26;;;;;;;1.57;1.47;;;5.90;99.90;;;;;;5066934;28;20178;-57
2022/01/23 11:00:51;;;;;;;1.03;0.80;;;5.80;99.90;;;;;;5064534;28;20185;-53
2022/01/23 11:03:22;;;;;;;0.67;0.67;;;5.90;99.90;;;;;;5066688;28;20224;-51
2022/01/23 11:05:50;;;;;;;1.20;1.10;;;5.70;99.90;;;;;;5064109;28;20189;-57
2022/01/23 11:08:22;;;;;;;0.80;0.80;;;6.00;99.90;;;;;;5068143;28;20186;-51
2022/01/23 11:10:59;;;;;;;0.70;0.70;;;6.30;99.90;;;;;;5065909;28;20181;-60
2022/01/23 11:19:21;;;;;;;1.30;1.30;;;6.10;99.90;;;;;;5081595;28;20232;-57
2022/01/23 11:21:47;;;;;;;2.73;1.97;;;6.20;99.90;;;;;;5066024;28;20189;-49
2022/01/23 11:24:13;;;;;;;2.30;1.57;;;6.00;99.90;;;;;;5066635;28;20217;-54
2022/01/23 11:26:40;;;;;;;1.53;1.30;;;5.70;99.90;;;;;;5064646;28;20185;-51
2022/01/23 11:29:15;;;;;;;0.90;0.90;;;5.40;99.90;;;;;;5066812;28;20592;-59
2022/01/23 11:31:43;;;;;;;1.60;1.40;;;5.50;99.90;;;;;;5064253;28;20196;-50
2022/01/23 11:34:12;;;;;;;1.20;1.10;;;5.20;99.90;;;;;;5067319;28;20193;-49
2022/01/23 11:36:39;;;;;;;0.93;0.90;;;5.20;99.90;;;;;;5064788;28;20198;-55
2022/01/23 11:39:52;;;;;;;0.83;0.83;;;5.20;99.90;;;;;;5066524;28;20263;-58
2022/01/23 11:53:48;;;;;;;1.33;1.23;;;4.80;99.90;;;;;;5082836;28;20232;-56
2022/01/23 11:56:43;;;;;;;3.00;1.57;;;5.00;99.90;;;;;;5082028;28;20201;-52
2022/01/23 11:59:35;;;;;;;3.03;1.10;;;4.90;99.90;;;;;;5083645;28;20265;-53
2022/01/23 12:02:26;;;;;;;1.17;1.07;;;5.00;99.90;;;;;;5081966;28;20226;-59
2022/01/23 12:05:15;;;;;;;1.27;1.20;;;5.00;99.90;;;;;;5086580;28;20254;-60
2022/01/23 12:08:32;;;;;;;0.60;0.60;;;5.00;99.90;;;;;;5087204;28;20266;-60
2022/01/23 12:11:46;;;;;;;0.80;0.80;;;5.20;99.90;;;;;;5085408;28;20253;-58
2022/01/23 12:17:41;;;;;;;1.03;0.80;;;5.30;99.90;;;;;;5088979;28;20200;-55
2022/01/23 12:20:34;;;;;;;1.23;1.10;;;5.50;99.90;;;;;;5086422;28;20196;-58
2022/01/23 12:23:19;;;;;;;6.77;4.30;;;5.60;99.90;;;;;;5084337;28;20266;-58
2022/01/23 12:26:07;;;;;;;1.70;1.13;;;5.50;99.90;;;;;;5087355;28;20251;-54
2022/01/23 12:28:52;;;;;;;1.43;0.90;;;5.40;99.90;;;;;;5085652;28;20221;-62
2022/01/23 12:31:36;;;;;;;2.23;0.90;;;5.40;99.90;;;;;;5085070;28;20243;-55
2022/01/23 12:34:51;;;;;;;0.90;0.90;;;5.50;99.90;;;;;;5087193;28;20204;-56
2022/01/23 12:38:12;;;;;;;1.53;1.30;;;5.50;99.90;;;;;;5085715;28;20326;-60
2022/01/23 12:41:14;;;;;;;1.87;1.20;;;5.40;99.90;;;;;;5049133;28;20205;-61
2022/01/23 12:44:29;;;;;;;2.50;1.80;;;5.40;99.90;;;;;;5050001;28;20356;-58
2022/01/23 12:47:19;;;;;;;8.13;4.77;;;5.40;99.90;;;;;;5051070;28;20189;-52
2022/01/23 12:50:04;;;;;;;2.83;2.30;;;5.50;99.90;;;;;;5048858;28;20259;-62
2022/01/23 12:52:50;;;;;;;1.23;1.20;;;5.30;99.90;;;;;;5049852;28;20260;-57
2022/01/23 12:55:34;;;;;;;1.57;0.73;;;5.30;99.90;;;;;;5050551;28;20252;-53
2022/01/23 12:58:21;;;;;;;0.70;0.70;;;5.20;99.90;;;;;;5047984;28;20197;-53
2022/01/23 13:01:16;;;;;;;1.20;1.20;;;5.00;99.90;;;;;;5051311;28;20198;-48
2022/01/23 13:04:03;;;;;;;1.30;1.20;;;5.00;99.90;;;;;;5050047;28;20304;-49
2022/01/23 13:30:23;;;;;;;0.60;0.60;;;5.10;99.90;;;;;;5087080;28;20212;-59
2022/01/23 13:33:14;;;;;;;0.60;0.60;;;5.30;99.90;;;;;;5082838;28;20189;-58
2022/01/23 13:36:01;;;;;;;0.60;0.60;;;5.40;99.90;;;;;;5085112;28;20688;-58
2022/01/23 13:38:45;;;;;;;0.80;0.50;;;5.40;99.90;;;;;;5085415;28;20233;-49
2022/01/23 13:41:45;;;;;;;0.23;0.23;;;5.60;99.90;;;;;;5083389;28;20188;-57
2022/01/23 13:57:37;;;;;;;1.00;0.90;;;5.80;99.90;;;;;;5042207;28;20198;-47
2022/01/23 13:57:40;;;;;;;32.33;15.03;;;5.80;99.90;;;;;;5043930;28;20198;-60
2022/01/23 14:00:26;;;;;;;1.10;1.07;;;5.80;99.90;;;;;;5042994;28;20272;-54
2022/01/23 14:03:11;;;;;;;0.43;0.40;;;5.80;99.90;;;;;;5041321;28;20257;-51
2022/01/23 14:05:56;;;;;;;0.80;0.80;;;5.80;99.90;;;;;;5043771;28;20221;-60
2022/01/23 14:08:41;;;;;;;0.80;0.80;;;5.70;99.90;;;;;;5043114;28;20196;-56
2022/01/23 14:11:26;;;;;;;1.30;0.87;;;5.50;99.90;;;;;;5041465;28;20222;-56
2022/01/23 14:14:13;;;;;;;1.43;1.10;;;5.40;99.90;;;;;;5043679;28;20202;-51
2022/01/23 14:17:12;;;;;;;1.37;0.83;;;5.20;99.90;;;;;;5027997;28;20214;-51
2022/01/23 14:20:17;;;;;;;1.13;1.03;;;5.10;99.90;;;;;;5040977;28;20238;-48
2022/01/23 14:23:12;;;;;;;1.23;1.10;;;5.00;99.90;;;;;;5085429;28;20228;-59
2022/01/23 14:26:00;;;;;;;0.60;0.60;;;4.70;99.90;;;;;;5083731;28;20204;-59
2022/01/23 14:28:48;;;;;;;0.60;0.60;;;4.80;99.90;;;;;;5082882;28;20188;-58
2022/01/23 14:31:37;;;;;;;0.60;0.60;;;4.90;99.90;;;;;;5085472;28;20273;-59
2022/01/23 14:34:24;;;;;;;0.37;0.37;;;4.90;99.90;;;;;;5083269;28;20189;-61
2022/01/23 14:37:08;;;;;;;0.60;0.60;;;5.00;99.90;;;;;;5082520;28;20188;-58
2022/01/23 14:40:08;;;;;;;0.40;0.40;;;4.90;99.90;;;;;;5084784;28;20232;-60
2022/01/23 14:43:04;;;;;;;0.50;0.50;;;5.00;99.90;;;;;;5082703;28;20277;-62
2022/01/23 14:45:52;;;;;;;0.57;0.40;;;5.00;99.90;;;;;;5081986;28;20196;-58
2022/01/23 14:48:43;;;;;;;0.40;0.40;;;4.90;99.90;;;;;;5084620;28;20192;-54
2022/01/23 14:51:34;;;;;;;0.80;0.80;;;5.00;99.90;;;;;;5082221;28;20277;-61
2022/01/23 14:54:20;;;;;;;1.00;1.00;;;5.00;99.90;;;;;;5082510;28;20251;-56
2022/01/23 14:57:08;;;;;;;0.60;0.60;;;5.00;99.90;;;;;;5083903;28;20184;-51
2022/01/23 14:59:56;;;;;;;0.60;0.60;;;5.00;99.90;;;;;;5082067;28;20197;-62
2022/01/23 15:02:42;;;;;;;0.83;0.80;;;4.90;99.90;;;;;;5082872;28;20236;-60
2022/01/23 15:05:33;;;;;;;0.70;0.70;;;5.00;99.90;;;;;;5083896;28;20201;-56
2022/01/23 15:08:23;;;;;;;0.60;0.60;;;4.90;99.90;;;;;;5082122;28;20196;-58
2022/01/23 15:11:07;;;;;;;0.70;0.40;;;5.00;99.90;;;;;;5083801;28;20229;-60
2022/01/23 15:13:51;;;;;;;0.43;0.43;;;4.90;99.90;;;;;;5083502;28;20207;-56
2022/01/23 15:16:36;;;;;;;0.43;0.40;;;4.90;99.90;;;;;;5081695;28;20235;-48
2022/01/23 15:19:20;;;;;;;0.27;0.27;;;4.90;99.90;;;;;;5084961;28;20188;-56
2022/01/23 15:22:05;;;;;;;0.30;0.20;;;4.90;99.90;;;;;;5083099;28;20256;-61
2022/01/23 15:24:50;;;;;;;0.73;0.73;;;5.00;99.90;;;;;;5081442;28;20246;-60
2022/01/23 15:27:35;;;;;;;0.60;0.60;;;5.00;99.90;;;;;;5083803;28;20255;-52
2022/01/23 15:30:22;;;;;;;0.30;0.30;;;4.90;99.90;;;;;;5081917;28;20243;-54
2022/01/23 15:33:08;;;;;;;0.50;0.50;;;4.80;99.90;;;;;;5082461;28;20227;-59
2022/01/23 15:35:52;;;;;;;0.50;0.50;;;4.80;99.90;;;;;;5083257;28;20192;-48
2022/01/23 15:38:41;;;;;;;0.70;0.43;;;4.80;99.90;;;;;;5082640;28;20225;-59
2022/01/23 15:41:25;;;;;;;7.63;5.50;;;4.90;99.90;;;;;;5087818;28;20192;-55
2022/01/23 15:44:11;;;;;;;3.80;2.00;;;4.90;99.90;;;;;;5087310;28;20286;-57
2022/01/23 15:46:55;;;;;;;0.93;0.60;;;4.90;99.90;;;;;;5085663;28;20238;-50
2022/01/23 15:49:40;;;;;;;0.70;0.70;;;4.90;99.90;;;;;;5088216;28;20200;-54
2022/01/23 15:52:24;;;;;;;0.70;0.70;;;4.80;99.90;;;;;;5086013;28;20254;-59
2022/01/23 15:55:10;;;;;;;1.87;1.37;;;4.80;99.90;;;;;;5085448;28;20239;-60
2022/01/23 15:57:55;;;;;;;1.40;1.30;;;4.80;99.90;;;;;;5088300;28;20208;-55
2022/01/23 16:00:40;;;;;;;2.27;1.77;;;4.80;99.90;;;;;;5085737;28;20197;-61
2022/01/23 16:03:26;;;;;;;2.17;1.97;;;4.80;99.90;;;;;;5085923;28;20219;-58
2022/01/23 16:06:10;;;;;;;1.03;1.03;;;4.80;99.90;;;;;;5087251;28;20211;-55
2022/01/23 16:08:55;;;;;;;1.93;1.50;;;4.80;99.90;;;;;;5084718;28;20257;-60
2022/01/23 16:11:40;;;;;;;1.40;1.30;;;4.70;99.90;;;;;;5087433;28;20265;-52
2022/01/23 16:14:25;;;;;;;1.77;1.30;;;4.70;99.90;;;;;;5086935;28;20220;-58
2022/01/23 16:17:10;;;;;;;1.77;1.57;;;4.70;99.90;;;;;;5084935;28;20599;-59
2022/01/23 16:19:55;;;;;;;4.13;3.33;;;4.70;99.90;;;;;;5088108;28;20189;-46
2022/01/23 16:22:40;;;;;;;14.33;6.33;;;4.70;99.90;;;;;;5086096;28;20282;-52
2022/01/23 16:25:26;;;;;;;2.23;1.63;;;4.70;99.90;;;;;;5085130;28;20197;-58
2022/01/23 16:28:10;;;;;;;1.10;1.10;;;4.70;99.90;;;;;;5087114;28;20200;-59
2022/01/23 16:30:58;;;;;;;1.60;1.50;;;4.80;99.90;;;;;;5085473;28;20279;-58
2022/01/23 16:33:43;;;;;;;1.73;1.60;;;4.70;99.90;;;;;;5085579;28;20331;-57
2022/01/23 16:36:27;;;;;;;1.83;1.33;;;4.80;99.90;;;;;;5086504;28;20253;-59
2022/01/23 16:39:15;;;;;;;25.77;11.73;;;4.90;99.90;;;;;;5084572;28;20313;-54
2022/01/23 16:42:01;;;;;;;2.10;1.97;;;4.90;99.90;;;;;;5086822;28;20284;-48
2022/01/23 16:44:45;;;;;;;2.17;1.97;;;4.80;99.90;;;;;;5085755;28;20216;-56
2022/01/23 16:47:30;;;;;;;3.43;2.10;;;4.70;99.90;;;;;;5084306;28;20275;-59
2022/01/23 16:50:16;;;;;;;2.37;2.17;;;4.80;99.90;;;;;;5087095;28;20193;-57
2022/01/23 16:53:01;;;;;;;3.73;1.60;;;4.70;99.90;;;;;;5085706;28;20224;-59
2022/01/23 16:55:45;;;;;;;2.43;1.53;;;4.80;99.90;;;;;;5084127;28;20188;-55
2022/01/23 16:58:32;;;;;;;1.40;1.30;;;4.70;99.90;;;;;;5086445;28;20212;-60
2022/01/23 17:01:19;;;;;;;2.67;1.87;;;4.70;99.90;;;;;;5084521;28;20251;-62
2022/01/23 17:04:04;;;;;;;1.93;1.67;;;4.70;99.90;;;;;;5085036;28;20224;-54
2022/01/23 17:06:48;;;;;;;8.23;3.43;;;4.70;99.90;;;;;;5085848;28;20200;-57
2022/01/23 17:09:33;;;;;;;2.83;2.20;;;4.70;99.90;;;;;;5083912;28;20204;-51